Time;durP1;ratioP1;P1;durP2;ratioP2;P2;SDS_P1;SDS_P2;PMS_P1;PMS_P2;Temp;Humidity;BMP_temperature;BMP_pressure;BME280_temperature;BME280_humidity;BME280_pressure;Samples;Min_cycle;Max_cycle;Signal;HPM_P1;HPM_P2
2022/04/03 00:00:00;;;;;;;1.38;1.27;;;16.00;49.80;;;;;;5132447;27;20528;-66
2022/04/03 00:02:26;;;;;;;1.02;0.90;;;16.00;49.80;;;;;;5132902;27;20590;-65
2022/04/03 00:04:51;;;;;;;0.88;0.88;;;16.00;49.80;;;;;;5133273;27;20173;-65
2022/04/03 00:07:17;;;;;;;0.98;0.98;;;16.00;49.80;;;;;;5132047;27;20183;-65
2022/04/03 00:09:42;;;;;;;1.00;0.90;;;16.00;49.80;;;;;;5133123;27;20844;-66
2022/04/03 00:12:08;;;;;;;1.85;1.30;;;16.00;49.80;;;;;;5132800;27;20607;-69
2022/04/03 00:14:33;;;;;;;0.80;0.80;;;15.90;49.80;;;;;;5132504;27;20195;-68
2022/04/03 00:16:59;;;;;;;1.17;0.98;;;15.90;49.70;;;;;;5132958;27;20198;-69
2022/04/03 00:19:24;;;;;;;1.02;1.02;;;15.90;49.80;;;;;;5132649;27;20580;-68
2022/04/03 00:21:50;;;;;;;0.98;0.98;;;15.90;49.80;;;;;;5132073;27;20200;-69
2022/04/03 00:24:17;;;;;;;0.85;0.85;;;15.90;49.80;;;;;;5097426;27;20647;-66
2022/04/03 00:26:42;;;;;;;0.82;0.82;;;15.90;49.80;;;;;;5133081;27;20247;-69
2022/04/03 00:29:08;;;;;;;0.88;0.80;;;15.90;49.80;;;;;;5131759;27;20263;-66
2022/04/03 00:31:34;;;;;;;0.90;0.90;;;15.80;49.80;;;;;;5132775;27;20196;-67
2022/04/03 00:34:02;;;;;;;0.85;0.80;;;15.80;49.80;;;;;;5132882;27;20168;-68
2022/04/03 00:36:28;;;;;;;1.23;1.08;;;15.80;49.80;;;;;;5131630;27;20201;-68
2022/04/03 00:38:53;;;;;;;0.93;0.90;;;15.80;49.80;;;;;;5132854;27;20192;-68
2022/04/03 00:41:22;;;;;;;1.55;1.45;;;15.80;49.80;;;;;;5132365;27;20211;-66
2022/04/03 00:43:48;;;;;;;1.15;1.05;;;15.80;49.80;;;;;;5113195;27;20176;-67
2022/04/03 00:46:14;;;;;;;0.85;0.85;;;15.80;49.90;;;;;;5132423;27;20168;-68
2022/04/03 00:48:39;;;;;;;1.23;1.13;;;15.80;49.80;;;;;;5114207;27;20172;-68
2022/04/03 00:51:04;;;;;;;1.00;0.90;;;15.70;49.80;;;;;;5113296;27;20216;-69
2022/04/03 00:53:30;;;;;;;1.20;1.10;;;15.70;49.80;;;;;;5132190;28;20464;-67
2022/04/03 00:55:55;;;;;;;1.17;1.00;;;15.70;49.80;;;;;;5131971;28;20192;-68
2022/04/03 00:58:22;;;;;;;1.05;1.05;;;15.70;49.90;;;;;;5131819;27;20220;-68
2022/04/03 01:00:47;;;;;;;0.90;0.90;;;15.70;49.90;;;;;;5132359;28;20228;-67
2022/04/03 01:03:13;;;;;;;1.15;1.08;;;15.70;49.90;;;;;;5131410;28;20188;-67
2022/04/03 01:05:38;;;;;;;1.02;1.02;;;15.70;49.90;;;;;;5132390;28;20180;-67
2022/04/03 01:08:04;;;;;;;1.38;1.27;;;15.70;49.90;;;;;;5132482;28;20186;-68
2022/04/03 01:10:30;;;;;;;1.20;1.13;;;15.70;49.90;;;;;;5113032;28;20192;-69
2022/04/03 01:12:55;;;;;;;0.90;0.90;;;15.60;49.90;;;;;;5134197;27;20541;-69
2022/04/03 01:15:21;;;;;;;1.58;1.05;;;15.60;49.90;;;;;;5135996;27;20183;-69
2022/04/03 01:17:46;;;;;;;1.70;1.30;;;15.60;49.80;;;;;;5135827;27;20475;-68
2022/04/03 01:20:12;;;;;;;1.05;0.88;;;15.60;49.90;;;;;;5136004;27;20707;-68
2022/04/03 01:22:37;;;;;;;0.80;0.80;;;15.60;49.90;;;;;;5136561;27;20695;-69
2022/04/03 01:25:03;;;;;;;1.27;1.08;;;15.60;49.90;;;;;;5135632;27;20168;-69
2022/04/03 01:27:29;;;;;;;1.20;1.10;;;15.60;49.90;;;;;;5136008;27;20266;-68
2022/04/03 01:29:54;;;;;;;0.85;0.80;;;15.60;49.90;;;;;;5136328;27;20403;-68
2022/04/03 01:32:20;;;;;;;1.20;1.00;;;15.50;49.90;;;;;;5135044;27;20259;-67
2022/04/03 01:34:46;;;;;;;1.13;1.00;;;15.50;49.80;;;;;;5136057;27;20180;-68
2022/04/03 01:37:11;;;;;;;0.90;0.90;;;15.50;49.90;;;;;;5136034;27;20199;-68
2022/04/03 01:39:37;;;;;;;1.20;0.90;;;15.50;50.00;;;;;;5135508;27;20168;-68
2022/04/03 01:42:03;;;;;;;1.08;0.95;;;15.50;49.90;;;;;;5135966;27;20200;-68
2022/04/03 01:44:28;;;;;;;0.90;0.85;;;15.50;50.50;;;;;;5135795;27;20180;-68
2022/04/03 01:46:56;;;;;;;1.17;0.98;;;15.50;49.90;;;;;;5135250;27;20534;-69
2022/04/03 01:49:21;;;;;;;1.15;1.05;;;15.50;50.00;;;;;;5135605;27;20172;-67
2022/04/03 01:51:47;;;;;;;1.00;1.00;;;15.50;49.90;;;;;;5136085;27;20172;-68
2022/04/03 01:54:12;;;;;;;1.35;1.10;;;15.50;49.90;;;;;;5134666;27;20607;-68
2022/04/03 01:56:39;;;;;;;1.27;1.10;;;15.40;49.90;;;;;;5135526;27;20611;-67
2022/04/03 01:59:08;;;;;;;0.95;0.85;;;15.40;49.90;;;;;;5135532;27;20169;-68
2022/04/03 02:01:34;;;;;;;1.00;1.00;;;15.40;49.90;;;;;;5135033;27;20224;-67
2022/04/03 02:04:00;;;;;;;0.95;0.90;;;15.40;49.90;;;;;;5135381;27;20511;-68
2022/04/03 02:06:25;;;;;;;1.02;0.93;;;15.40;49.90;;;;;;5134683;27;20550;-67
2022/04/03 02:08:51;;;;;;;1.15;1.00;;;15.40;49.90;;;;;;5135475;27;20218;-68
2022/04/03 02:11:16;;;;;;;1.27;1.17;;;15.30;49.90;;;;;;5135256;27;20171;-69
2022/04/03 02:13:42;;;;;;;0.90;0.90;;;15.30;49.80;;;;;;5134449;27;20168;-69
2022/04/03 02:16:09;;;;;;;1.10;1.00;;;15.30;49.90;;;;;;5135027;27;20195;-69
2022/04/03 02:18:35;;;;;;;1.20;1.10;;;15.30;49.90;;;;;;5135177;27;20217;-69
2022/04/03 02:21:00;;;;;;;1.30;1.20;;;15.30;49.90;;;;;;5134151;27;20678;-69
2022/04/03 02:23:26;;;;;;;1.20;0.90;;;15.30;49.90;;;;;;5133976;27;20267;-69
2022/04/03 02:25:52;;;;;;;1.13;1.05;;;15.30;49.90;;;;;;5135189;27;20263;-69
2022/04/03 02:28:17;;;;;;;1.15;0.95;;;15.30;49.90;;;;;;5133994;27;20310;-69
2022/04/03 02:30:43;;;;;;;1.10;1.00;;;15.30;49.90;;;;;;5134943;27;20200;-68
2022/04/03 02:33:11;;;;;;;0.88;0.88;;;15.30;49.90;;;;;;5134366;27;20173;-67
2022/04/03 02:35:37;;;;;;;1.98;0.95;;;15.30;49.90;;;;;;5133955;27;20623;-68
2022/04/03 02:38:02;;;;;;;0.90;0.85;;;15.20;49.80;;;;;;5135015;27;20177;-66
2022/04/03 02:40:28;;;;;;;1.20;1.08;;;15.20;49.80;;;;;;5134292;27;20251;-68
2022/04/03 02:42:53;;;;;;;0.90;0.90;;;15.20;49.80;;;;;;5134061;27;20188;-68
2022/04/03 02:45:19;;;;;;;0.90;0.90;;;15.20;49.80;;;;;;5134351;27;20251;-68
2022/04/03 02:47:52;;;;;;;0.90;0.90;;;15.20;49.80;;;;;;5134365;27;20195;-68
2022/04/03 02:50:19;;;;;;;1.20;1.10;;;15.20;49.80;;;;;;5133702;27;20177;-68
2022/04/03 02:52:48;;;;;;;1.25;1.15;;;15.20;49.80;;;;;;5134404;27;20627;-69
2022/04/03 02:55:14;;;;;;;1.52;1.08;;;15.10;49.80;;;;;;5134289;27;20164;-68
2022/04/03 02:57:42;;;;;;;1.25;1.15;;;15.10;49.80;;;;;;5133414;27;20281;-68
2022/04/03 03:00:08;;;;;;;0.73;0.73;;;15.10;49.80;;;;;;5133624;27;20476;-68
2022/04/03 03:02:34;;;;;;;0.90;0.90;;;15.10;49.80;;;;;;5133718;27;20179;-67
2022/04/03 03:04:59;;;;;;;0.90;0.90;;;15.10;49.80;;;;;;5134367;27;20259;-68
2022/04/03 03:07:35;;;;;;;1.35;1.20;;;15.10;49.80;;;;;;5133937;27;20786;-68
2022/04/03 03:10:00;;;;;;;0.90;0.90;;;15.10;49.90;;;;;;5115660;27;20371;-68
2022/04/03 03:12:25;;;;;;;1.00;1.00;;;15.10;49.90;;;;;;5133706;27;20304;-69
2022/04/03 03:14:51;;;;;;;1.02;1.00;;;15.10;49.80;;;;;;5133990;27;20233;-69
2022/04/03 03:17:16;;;;;;;1.00;1.00;;;15.10;49.80;;;;;;5132927;27;20503;-68
2022/04/03 03:19:42;;;;;;;1.13;1.00;;;15.10;49.80;;;;;;5133976;27;20183;-68
2022/04/03 03:22:08;;;;;;;1.10;1.00;;;15.00;49.80;;;;;;5133629;27;20572;-69
2022/04/03 03:24:33;;;;;;;1.77;1.15;;;15.00;49.80;;;;;;5132650;27;20181;-69
2022/04/03 03:26:59;;;;;;;1.10;1.02;;;15.00;49.80;;;;;;5133758;27;20739;-68
2022/04/03 03:29:24;;;;;;;1.00;1.00;;;15.00;49.80;;;;;;5133329;27;20165;-67
2022/04/03 03:31:50;;;;;;;1.17;0.98;;;15.00;49.80;;;;;;5133313;27;20231;-67
2022/04/03 03:34:15;;;;;;;1.00;0.88;;;15.00;49.70;;;;;;5133391;27;20267;-66
2022/04/03 03:36:41;;;;;;;1.60;0.90;;;15.00;49.80;;;;;;5132869;27;20592;-67
2022/04/03 03:39:07;;;;;;;1.05;0.80;;;15.00;49.80;;;;;;5132301;27;20176;-68
2022/04/03 03:41:32;;;;;;;1.13;0.98;;;15.00;49.80;;;;;;5133560;27;20197;-67
2022/04/03 03:43:58;;;;;;;1.00;1.00;;;14.90;49.80;;;;;;5133370;27;20172;-68
2022/04/03 03:46:23;;;;;;;1.30;1.00;;;14.90;49.80;;;;;;5132354;27;20221;-67
2022/04/03 03:48:49;;;;;;;0.88;0.88;;;14.90;49.70;;;;;;5133618;27;20515;-69
2022/04/03 03:51:14;;;;;;;1.10;1.00;;;14.90;49.80;;;;;;5132934;27;20573;-68
2022/04/03 03:53:40;;;;;;;1.10;1.00;;;14.90;49.80;;;;;;5132818;27;20198;-68
2022/04/03 03:56:05;;;;;;;0.90;0.90;;;14.90;49.80;;;;;;5133347;27;20208;-68
2022/04/03 03:58:31;;;;;;;1.13;1.02;;;14.90;49.80;;;;;;5132757;27;20220;-68
2022/04/03 04:00:56;;;;;;;1.00;0.90;;;14.90;49.80;;;;;;5132477;27;20264;-68
2022/04/03 04:03:22;;;;;;;0.90;0.90;;;14.90;49.80;;;;;;5133085;27;20627;-67
2022/04/03 04:05:47;;;;;;;1.00;1.00;;;14.90;49.90;;;;;;5132538;27;20225;-67
2022/04/03 04:08:13;;;;;;;1.00;1.00;;;14.90;49.80;;;;;;5132994;27;20168;-68
2022/04/03 04:10:41;;;;;;;0.90;0.90;;;14.80;49.80;;;;;;5133221;27;20175;-69
2022/04/03 04:13:07;;;;;;;1.20;1.10;;;14.80;49.80;;;;;;5132098;27;20291;-69
2022/04/03 04:15:32;;;;;;;1.10;1.00;;;14.80;49.80;;;;;;5133357;27;20239;-68
2022/04/03 04:17:58;;;;;;;1.00;0.90;;;14.80;49.80;;;;;;5132940;27;20203;-68
2022/04/03 04:20:23;;;;;;;1.05;0.85;;;14.80;49.80;;;;;;5131911;27;20649;-68
2022/04/03 04:22:50;;;;;;;1.15;0.90;;;14.80;49.80;;;;;;5132961;27;20179;-68
2022/04/03 04:25:16;;;;;;;0.90;0.90;;;14.80;49.80;;;;;;5132663;27;20173;-69
2022/04/03 04:27:42;;;;;;;1.45;1.02;;;14.80;49.80;;;;;;5132148;27;20615;-67
2022/04/03 04:30:08;;;;;;;1.00;1.00;;;14.80;49.80;;;;;;5132743;27;20176;-67
2022/04/03 04:32:33;;;;;;;1.10;1.00;;;14.70;49.80;;;;;;5132882;27;20635;-66
2022/04/03 04:34:59;;;;;;;1.20;1.10;;;14.80;49.90;;;;;;5132361;27;20168;-67
2022/04/03 04:37:24;;;;;;;1.35;1.20;;;14.70;49.80;;;;;;5132589;27;20168;-67
2022/04/03 04:39:50;;;;;;;0.93;0.93;;;14.80;49.80;;;;;;5132865;27;20187;-66
2022/04/03 04:42:15;;;;;;;0.98;0.90;;;14.70;49.80;;;;;;5131542;27;20211;-67
2022/04/03 04:44:42;;;;;;;1.10;1.10;;;14.70;49.80;;;;;;5132528;27;20619;-67
2022/04/03 04:47:07;;;;;;;1.13;0.93;;;14.70;49.80;;;;;;5132487;27;20186;-68
2022/04/03 04:49:33;;;;;;;0.93;0.93;;;14.70;49.80;;;;;;5132097;27;20168;-68
2022/04/03 04:51:59;;;;;;;1.05;1.05;;;14.70;49.80;;;;;;5132893;27;20176;-68
2022/04/03 04:54:26;;;;;;;1.20;1.10;;;14.70;49.80;;;;;;5132351;28;20650;-68
2022/04/03 04:56:55;;;;;;;1.05;1.00;;;14.70;49.80;;;;;;5131478;27;20251;-68
2022/04/03 04:59:20;;;;;;;0.73;0.73;;;14.70;49.90;;;;;;5132444;28;20188;-67
2022/04/03 05:01:46;;;;;;;0.70;0.70;;;14.70;49.80;;;;;;5132386;28;20208;-67
2022/04/03 05:04:11;;;;;;;1.08;0.80;;;14.70;49.90;;;;;;5131558;27;20221;-67
2022/04/03 05:06:37;;;;;;;0.80;0.80;;;14.80;49.80;;;;;;5132418;28;20184;-68
2022/04/03 05:09:05;;;;;;;0.65;0.65;;;14.90;49.80;;;;;;5132136;27;20595;-69
2022/04/03 05:11:31;;;;;;;0.70;0.70;;;15.10;49.70;;;;;;5132338;27;20263;-69
2022/04/03 05:14:01;;;;;;;0.80;0.80;;;15.30;49.30;;;;;;5114193;28;20247;-69
2022/04/03 05:16:26;;;;;;;1.15;0.90;;;15.50;49.10;;;;;;5131598;27;20192;-68
2022/04/03 05:18:52;;;;;;;0.80;0.80;;;15.70;48.80;;;;;;5114116;28;20172;-69
2022/04/03 05:21:18;;;;;;;1.92;0.80;;;16.10;48.10;;;;;;5132036;28;20269;-68
2022/04/03 05:23:43;;;;;;;0.88;0.85;;;16.40;47.60;;;;;;5131771;28;20679;-68
2022/04/03 05:26:10;;;;;;;0.70;0.70;;;16.60;47.10;;;;;;5132215;28;20271;-70
2022/04/03 05:28:35;;;;;;;0.73;0.73;;;16.90;46.70;;;;;;5132505;28;20200;-68
2022/04/03 05:31:01;;;;;;;0.70;0.70;;;17.10;46.40;;;;;;5131746;28;20215;-69
2022/04/03 05:33:27;;;;;;;1.08;0.90;;;17.20;46.10;;;;;;5132101;28;20263;-66
2022/04/03 05:35:52;;;;;;;0.70;0.70;;;17.40;45.90;;;;;;5132228;27;20187;-66
2022/04/03 05:38:17;;;;;;;1.08;1.00;;;17.50;45.80;;;;;;5131382;28;20179;-67
2022/04/03 05:40:46;;;;;;;0.80;0.80;;;17.60;45.70;;;;;;5132758;27;20196;-68
2022/04/03 05:43:12;;;;;;;0.70;0.70;;;17.60;45.60;;;;;;5132086;28;20236;-68
2022/04/03 05:45:40;;;;;;;0.50;0.50;;;17.60;45.60;;;;;;5131694;28;20168;-68
2022/04/03 05:48:09;;;;;;;0.80;0.75;;;17.60;45.60;;;;;;5132087;27;20173;-68
2022/04/03 05:50:37;;;;;;;0.90;0.82;;;17.50;45.80;;;;;;5131980;28;20172;-68
2022/04/03 05:53:03;;;;;;;0.82;0.80;;;17.40;45.90;;;;;;5131159;28;20317;-68
2022/04/03 05:55:28;;;;;;;1.15;0.55;;;17.40;46.60;;;;;;5131648;27;20651;-68
2022/04/03 05:57:54;;;;;;;0.70;0.70;;;17.40;46.10;;;;;;5131608;27;20226;-68
2022/04/03 06:00:20;;;;;;;0.80;0.80;;;17.40;46.20;;;;;;5134596;27;20623;-67
2022/04/03 06:02:53;;;;;;;0.70;0.70;;;17.40;46.20;;;;;;5135905;27;20249;-67
2022/04/03 06:05:23;;;;;;;0.68;0.68;;;17.50;46.10;;;;;;5134723;27;20199;-67
2022/04/03 06:07:49;;;;;;;0.82;0.73;;;17.60;46.00;;;;;;5135440;27;20233;-67
2022/04/03 06:10:14;;;;;;;0.73;0.70;;;17.70;45.80;;;;;;5135046;27;20173;-69
2022/04/03 06:13:06;;;;;;;0.60;0.60;;;17.80;45.60;;;;;;5134793;27;20284;-69
2022/04/03 06:15:37;;;;;;;0.85;0.77;;;18.00;45.30;;;;;;5135205;27;20199;-68
2022/04/03 06:18:05;;;;;;;0.77;0.77;;;18.00;45.20;;;;;;5134521;27;20187;-68
2022/04/03 06:20:30;;;;;;;0.70;0.70;;;18.10;45.10;;;;;;5134355;27;20180;-69
2022/04/03 06:22:56;;;;;;;0.50;0.50;;;18.20;45.00;;;;;;5135080;27;20199;-69
2022/04/03 06:25:21;;;;;;;0.60;0.60;;;18.30;44.90;;;;;;5134865;27;20172;-68
2022/04/03 06:27:47;;;;;;;0.80;0.80;;;18.30;44.90;;;;;;5134299;27;20192;-68
2022/04/03 06:30:13;;;;;;;0.57;0.57;;;18.30;44.90;;;;;;5134781;27;20195;-68
2022/04/03 06:32:39;;;;;;;0.80;0.52;;;18.40;44.90;;;;;;5134818;27;20202;-67
2022/04/03 06:35:04;;;;;;;0.65;0.65;;;18.50;44.90;;;;;;5134214;27;20176;-68
2022/04/03 06:37:30;;;;;;;0.77;0.65;;;18.50;44.90;;;;;;5134794;27;20180;-67
2022/04/03 06:39:55;;;;;;;1.00;0.60;;;18.50;44.80;;;;;;5134677;27;20677;-67
2022/04/03 06:42:21;;;;;;;0.65;0.65;;;18.60;44.80;;;;;;5133593;27;20219;-68
2022/04/03 06:44:46;;;;;;;0.80;0.60;;;18.60;44.80;;;;;;5134742;27;20164;-68
2022/04/03 06:47:12;;;;;;;0.75;0.75;;;18.60;44.80;;;;;;5134079;27;20187;-68
2022/04/03 06:49:40;;;;;;;0.70;0.60;;;18.60;44.70;;;;;;5134087;27;20166;-68
2022/04/03 06:52:07;;;;;;;0.65;0.60;;;18.70;45.40;;;;;;5116517;27;20179;-68
2022/04/03 06:54:32;;;;;;;0.60;0.60;;;18.70;44.70;;;;;;5134051;27;20188;-68
2022/04/03 06:56:58;;;;;;;0.60;0.60;;;18.70;44.70;;;;;;5134075;27;20224;-68
2022/04/03 06:59:24;;;;;;;0.63;0.63;;;18.80;44.70;;;;;;5134097;27;20176;-67
2022/04/03 07:01:49;;;;;;;0.52;0.52;;;18.80;44.60;;;;;;5133598;27;20196;-67
2022/04/03 07:04:15;;;;;;;0.70;0.70;;;18.90;44.60;;;;;;5134418;27;20184;-67
2022/04/03 07:06:40;;;;;;;1.00;0.70;;;18.90;44.60;;;;;;5134082;27;20184;-67
2022/04/03 07:09:06;;;;;;;0.63;0.63;;;18.90;44.60;;;;;;5133513;27;20659;-68
2022/04/03 07:11:31;;;;;;;0.68;0.68;;;18.90;44.60;;;;;;5133082;27;20180;-69
2022/04/03 07:13:57;;;;;;;0.60;0.60;;;19.00;44.60;;;;;;5133928;27;20539;-68
2022/04/03 07:16:25;;;;;;;0.50;0.50;;;19.00;44.60;;;;;;5133247;27;20271;-68
2022/04/03 07:18:50;;;;;;;1.40;0.68;;;19.00;44.70;;;;;;5134194;27;20169;-68
2022/04/03 07:21:16;;;;;;;0.82;0.73;;;18.90;44.80;;;;;;5133677;27;20211;-68
2022/04/03 07:23:42;;;;;;;0.70;0.70;;;18.80;44.90;;;;;;5133367;27;20266;-68
2022/04/03 07:26:07;;;;;;;0.73;0.55;;;18.70;45.10;;;;;;5133574;27;20243;-68
2022/04/03 07:28:36;;;;;;;0.57;0.57;;;18.70;45.30;;;;;;5133803;27;20283;-68
2022/04/03 07:31:01;;;;;;;0.70;0.63;;;18.70;45.20;;;;;;5133093;27;20266;-68
2022/04/03 07:33:27;;;;;;;1.00;0.70;;;18.80;45.20;;;;;;5133483;27;20260;-66
2022/04/03 07:35:53;;;;;;;0.50;0.50;;;18.90;45.10;;;;;;5133681;27;20190;-68
2022/04/03 07:38:19;;;;;;;0.60;0.60;;;19.00;45.10;;;;;;5132672;27;20173;-66
2022/04/03 07:40:48;;;;;;;0.60;0.60;;;19.00;45.00;;;;;;5133541;27;20336;-68
2022/04/03 07:43:16;;;;;;;1.55;0.57;;;19.10;45.00;;;;;;5133294;27;20173;-67
2022/04/03 07:45:42;;;;;;;1.02;0.93;;;19.10;44.90;;;;;;5132744;27;20172;-68
2022/04/03 07:48:07;;;;;;;0.70;0.70;;;19.20;45.10;;;;;;5133337;27;20179;-69
2022/04/03 07:50:33;;;;;;;0.63;0.63;;;19.10;45.00;;;;;;5133732;27;20173;-68
2022/04/03 07:52:59;;;;;;;0.82;0.70;;;19.10;44.90;;;;;;5132662;27;20173;-68
2022/04/03 07:55:24;;;;;;;0.93;0.75;;;19.10;45.00;;;;;;5132916;27;20181;-69
2022/04/03 07:57:50;;;;;;;3.75;0.60;;;19.20;45.10;;;;;;5132851;27;20231;-68
2022/04/03 08:00:15;;;;;;;2.15;0.77;;;19.20;45.10;;;;;;5132384;27;20264;-73
2022/04/03 08:02:41;;;;;;;4.22;1.33;;;19.30;45.10;;;;;;5133607;27;20587;-68
2022/04/03 08:05:07;;;;;;;1.25;0.75;;;19.10;45.10;;;;;;5132298;27;20176;-69
2022/04/03 08:07:39;;;;;;;3.42;0.90;;;19.00;45.40;;;;;;5132172;27;20188;-70
2022/04/03 08:10:06;;;;;;;1.73;0.70;;;18.80;45.50;;;;;;5133135;27;20584;-68
2022/04/03 08:12:32;;;;;;;3.53;1.05;;;18.60;45.80;;;;;;5132054;27;20259;-68
2022/04/03 08:14:57;;;;;;;2.28;0.70;;;18.50;45.80;;;;;;5132953;27;20501;-72
2022/04/03 08:17:23;;;;;;;3.35;1.02;;;18.40;46.10;;;;;;5132655;27;20669;-68
2022/04/03 08:19:48;;;;;;;2.92;0.88;;;18.20;46.40;;;;;;5131895;27;20263;-68
2022/04/03 08:22:14;;;;;;;1.48;1.00;;;18.20;46.50;;;;;;5132283;27;20299;-68
2022/04/03 08:24:39;;;;;;;1.05;0.70;;;18.10;46.60;;;;;;5132117;27;20183;-70
2022/04/03 08:27:07;;;;;;;1.83;1.20;;;18.10;46.70;;;;;;5132122;27;20169;-69
2022/04/03 08:29:32;;;;;;;2.10;1.02;;;18.10;47.10;;;;;;5132844;27;20229;-67
2022/04/03 08:31:58;;;;;;;2.10;1.10;;;18.10;47.30;;;;;;5132490;27;20172;-68
2022/04/03 08:34:23;;;;;;;1.40;1.00;;;18.10;47.40;;;;;;5131825;27;20164;-67
2022/04/03 08:36:49;;;;;;;3.80;0.80;;;18.10;47.40;;;;;;5132794;27;20175;-67
2022/04/03 08:39:14;;;;;;;2.10;0.77;;;18.10;48.00;;;;;;5132076;27;20172;-69
2022/04/03 08:41:43;;;;;;;2.13;0.93;;;18.20;47.30;;;;;;5131743;27;20697;-68
2022/04/03 08:44:08;;;;;;;2.20;0.80;;;18.10;47.20;;;;;;5132179;27;20194;-68
2022/04/03 08:46:37;;;;;;;2.13;0.90;;;18.20;47.20;;;;;;5132757;27;20188;-75
2022/04/03 08:49:02;;;;;;;3.00;0.98;;;18.20;47.20;;;;;;5113630;27;20165;-68
2022/04/03 08:51:28;;;;;;;3.17;0.77;;;18.10;47.50;;;;;;5096840;27;20172;-71
2022/04/03 08:53:53;;;;;;;4.40;0.93;;;18.10;47.50;;;;;;5114207;28;20164;-71
2022/04/03 08:56:19;;;;;;;1.90;0.80;;;18.00;47.50;;;;;;5131772;28;20180;-69
2022/04/03 08:58:44;;;;;;;2.22;0.90;;;18.00;47.30;;;;;;5132209;28;20231;-65
2022/04/03 09:01:10;;;;;;;4.25;1.00;;;18.10;47.00;;;;;;5131674;28;20204;-65
2022/04/03 09:03:37;;;;;;;2.40;0.88;;;18.20;46.90;;;;;;5114200;28;20172;-75
2022/04/03 09:06:13;;;;;;;2.50;0.68;;;18.10;46.80;;;;;;5114288;28;20187;-68
2022/04/03 09:08:38;;;;;;;2.20;0.70;;;18.20;46.50;;;;;;5131903;28;20176;-68
2022/04/03 09:11:07;;;;;;;1.35;0.90;;;18.20;46.50;;;;;;5132351;28;20198;-71
2022/04/03 09:13:34;;;;;;;1.73;0.80;;;18.20;46.40;;;;;;5132557;28;20644;-69
2022/04/03 09:15:59;;;;;;;3.33;0.90;;;18.20;46.40;;;;;;5131817;28;20189;-70
2022/04/03 09:18:51;;;;;;;1.23;0.80;;;18.20;46.40;;;;;;5113827;28;20514;-69
2022/04/03 09:21:25;;;;;;;0.98;0.70;;;18.20;46.30;;;;;;5131807;27;20212;-68
2022/04/03 09:24:08;;;;;;;2.25;0.85;;;18.30;46.30;;;;;;5132851;27;20176;-69
2022/04/03 09:26:34;;;;;;;1.67;0.60;;;18.40;46.10;;;;;;5138630;27;20186;-68
2022/04/03 09:29:14;;;;;;;2.47;0.70;;;18.50;46.10;;;;;;5137130;27;20259;-70
2022/04/03 09:31:40;;;;;;;2.40;0.75;;;18.40;46.00;;;;;;5133719;27;20176;-68
2022/04/03 09:34:06;;;;;;;2.25;0.88;;;18.30;46.10;;;;;;5154670;27;20172;-67
2022/04/03 09:36:33;;;;;;;1.58;0.70;;;18.40;46.10;;;;;;5156143;27;20625;-68
2022/04/03 09:39:14;;;;;;;1.55;0.70;;;18.30;46.20;;;;;;5143757;27;20527;-68
2022/04/03 09:42:24;;;;;;;0.73;0.60;;;18.30;46.30;;;;;;5151030;27;20223;-67
2022/04/03 09:44:50;;;;;;;0.85;0.47;;;18.30;46.30;;;;;;5150907;27;20556;-68
2022/04/03 09:47:26;;;;;;;2.50;0.63;;;18.30;46.50;;;;;;5156337;27;20259;-68
2022/04/03 09:49:55;;;;;;;1.75;0.65;;;18.30;46.50;;;;;;5156776;27;20186;-68
2022/04/03 09:52:40;;;;;;;1.00;0.70;;;18.20;46.40;;;;;;5155693;27;20254;-68
2022/04/03 09:55:07;;;;;;;0.75;0.50;;;18.20;46.50;;;;;;5156337;27;20179;-68
2022/04/03 09:57:33;;;;;;;1.55;0.52;;;18.10;46.50;;;;;;5150700;27;20307;-68
2022/04/03 09:59:58;;;;;;;1.63;0.70;;;18.10;46.60;;;;;;5135912;27;20204;-67
2022/04/03 10:02:24;;;;;;;1.05;0.90;;;18.10;46.60;;;;;;5135161;27;20219;-68
2022/04/03 10:04:53;;;;;;;1.23;0.45;;;18.20;46.50;;;;;;5135186;27;20185;-69
2022/04/03 10:07:20;;;;;;;1.23;0.60;;;18.20;47.10;;;;;;5100172;27;20178;-68
2022/04/03 10:09:47;;;;;;;0.88;0.60;;;18.20;47.00;;;;;;5136152;27;20233;-69
2022/04/03 10:12:22;;;;;;;0.60;0.60;;;18.20;46.20;;;;;;5134827;27;20267;-70
2022/04/03 10:14:49;;;;;;;1.55;0.75;;;18.30;46.30;;;;;;5136062;27;20525;-69
2022/04/03 10:17:15;;;;;;;1.63;0.63;;;18.30;46.20;;;;;;5135402;27;20172;-69
2022/04/03 10:19:41;;;;;;;1.95;0.90;;;18.30;46.20;;;;;;5135000;27;20236;-68
2022/04/03 10:22:11;;;;;;;1.02;0.57;;;18.20;46.30;;;;;;5135100;27;20224;-69
2022/04/03 10:24:37;;;;;;;1.05;0.68;;;18.20;46.40;;;;;;5100634;27;20176;-69
2022/04/03 10:27:13;;;;;;;1.60;0.63;;;18.20;46.40;;;;;;5099151;27;20176;-69
2022/04/03 10:29:38;;;;;;;1.58;0.40;;;18.20;46.40;;;;;;5135188;27;20168;-68
2022/04/03 10:32:05;;;;;;;0.47;0.40;;;18.20;46.30;;;;;;5143012;27;20175;-68
2022/04/03 10:34:32;;;;;;;1.15;0.60;;;18.10;46.30;;;;;;5155196;27;20263;-67
2022/04/03 10:36:57;;;;;;;0.52;0.52;;;18.10;46.40;;;;;;5155920;27;20211;-68
2022/04/03 10:39:27;;;;;;;0.95;0.52;;;18.00;46.40;;;;;;5155625;27;20525;-67
2022/04/03 10:42:21;;;;;;;0.63;0.55;;;18.00;46.50;;;;;;5154911;27;20211;-69
2022/04/03 10:45:11;;;;;;;0.98;0.68;;;18.00;46.50;;;;;;5155555;27;20224;-69
2022/04/03 10:47:38;;;;;;;0.55;0.40;;;18.00;46.50;;;;;;5154753;27;20599;-68
2022/04/03 10:50:04;;;;;;;0.55;0.50;;;18.00;46.40;;;;;;5155801;27;20199;-69
2022/04/03 10:52:39;;;;;;;1.90;0.60;;;18.00;46.40;;;;;;5155539;27;20179;-68
2022/04/03 10:55:26;;;;;;;0.50;0.50;;;18.00;46.30;;;;;;5154736;27;20194;-68
2022/04/03 10:57:53;;;;;;;0.50;0.47;;;18.00;46.30;;;;;;5155197;27;20258;-69
2022/04/03 11:00:18;;;;;;;1.17;0.60;;;17.90;46.40;;;;;;5155339;27;20240;-68
2022/04/03 11:02:51;;;;;;;0.40;0.40;;;17.90;46.50;;;;;;5154629;27;20207;-68
2022/04/03 11:05:31;;;;;;;1.17;0.40;;;17.90;46.50;;;;;;5136460;27;20527;-68
2022/04/03 11:08:00;;;;;;;1.08;0.57;;;17.90;46.30;;;;;;5154500;27;20575;-76
2022/04/03 11:10:48;;;;;;;2.13;1.10;;;18.00;46.20;;;;;;5154971;27;20251;-70
2022/04/03 11:13:17;;;;;;;2.03;0.80;;;18.10;46.00;;;;;;5154827;27;20250;-73
2022/04/03 11:15:51;;;;;;;3.85;1.13;;;18.20;45.80;;;;;;5154365;27;20164;-69
2022/04/03 11:18:31;;;;;;;2.30;0.65;;;18.20;45.40;;;;;;5154410;27;20203;-70
2022/04/03 11:21:14;;;;;;;3.03;0.68;;;18.30;45.70;;;;;;5154668;27;20678;-72
2022/04/03 11:23:48;;;;;;;4.80;0.80;;;18.20;45.90;;;;;;5154215;27;20180;-69
2022/04/03 11:26:14;;;;;;;1.85;0.60;;;18.20;46.00;;;;;;5135834;27;20203;-71
2022/04/03 11:28:39;;;;;;;1.30;0.70;;;18.30;46.20;;;;;;5154489;27;20319;-69
2022/04/03 11:31:05;;;;;;;3.53;0.90;;;18.20;46.20;;;;;;5153839;27;20164;-71
2022/04/03 11:33:31;;;;;;;1.17;0.60;;;18.20;46.40;;;;;;5133793;27;20192;-68
2022/04/03 11:36:13;;;;;;;1.10;0.50;;;18.10;46.40;;;;;;5133234;27;20204;-69
2022/04/03 11:38:48;;;;;;;1.80;0.70;;;18.10;46.50;;;;;;5133778;27;20180;-77
2022/04/03 11:41:20;;;;;;;1.75;1.00;;;18.00;46.60;;;;;;5133357;27;20673;-76
2022/04/03 11:44:00;;;;;;;2.83;0.75;;;18.00;46.60;;;;;;5133295;27;20207;-68
2022/04/03 11:46:29;;;;;;;3.15;0.68;;;18.00;46.50;;;;;;5133442;27;20207;-67
2022/04/03 11:48:54;;;;;;;2.75;0.80;;;18.00;46.40;;;;;;5133483;27;20169;-71
2022/04/03 11:51:20;;;;;;;4.05;0.60;;;18.00;46.50;;;;;;5132807;27;20233;-66
2022/04/03 11:53:49;;;;;;;2.95;0.80;;;18.10;46.40;;;;;;5133662;27;20169;-69
2022/04/03 11:56:15;;;;;;;3.72;0.70;;;18.20;46.40;;;;;;5133113;27;20225;-69
2022/04/03 11:58:48;;;;;;;2.05;0.50;;;18.30;46.40;;;;;;5132864;27;20262;-69
2022/04/03 12:01:33;;;;;;;5.18;1.30;;;18.30;46.30;;;;;;5133215;27;20295;-68
2022/04/03 12:04:09;;;;;;;1.65;0.82;;;18.40;46.30;;;;;;5117885;27;20173;-68
2022/04/03 12:06:35;;;;;;;3.63;0.75;;;18.50;46.20;;;;;;5133739;27;20183;-69
2022/04/03 12:09:03;;;;;;;2.58;0.50;;;18.60;46.10;;;;;;5133654;27;20221;-71
2022/04/03 12:11:29;;;;;;;3.50;0.70;;;18.80;45.90;;;;;;5114847;27;20180;-70
2022/04/03 12:14:02;;;;;;;4.60;0.88;;;19.00;45.60;;;;;;5133610;27;20241;-72
2022/04/03 12:16:31;;;;;;;3.70;0.73;;;19.20;45.30;;;;;;5133058;27;20679;-71
2022/04/03 12:19:04;;;;;;;2.90;0.57;;;19.30;45.10;;;;;;5133244;27;20176;-72
2022/04/03 12:21:56;;;;;;;3.00;0.60;;;19.40;44.80;;;;;;5132945;27;20212;-68
2022/04/03 12:24:29;;;;;;;0.75;0.40;;;19.50;44.70;;;;;;5129338;27;20172;-70
2022/04/03 12:27:12;;;;;;;1.23;0.50;;;19.50;44.70;;;;;;5132503;27;20237;-71
2022/04/03 12:29:38;;;;;;;2.08;0.70;;;19.50;44.70;;;;;;5115637;27;20192;-69
2022/04/03 12:32:05;;;;;;;1.83;0.50;;;19.60;44.70;;;;;;5141044;27;20255;-68
2022/04/03 12:34:32;;;;;;;1.38;0.50;;;19.70;44.70;;;;;;5153290;27;20240;-68
2022/04/03 12:36:59;;;;;;;1.02;0.50;;;19.70;44.60;;;;;;5153760;27;20179;-69
2022/04/03 12:39:42;;;;;;;0.40;0.40;;;19.70;44.60;;;;;;5152739;27;20199;-68
2022/04/03 12:42:31;;;;;;;3.40;0.55;;;19.80;44.60;;;;;;5153547;27;20267;-69
2022/04/03 12:45:01;;;;;;;1.38;0.50;;;19.80;45.20;;;;;;5153951;27;20167;-70
2022/04/03 12:47:36;;;;;;;0.77;0.40;;;19.70;44.70;;;;;;5133899;27;20945;-68
2022/04/03 12:50:05;;;;;;;1.05;0.40;;;19.70;44.80;;;;;;5153939;27;20195;-68